Oakland, Nebraska
Current Conditions -  °F | °C
As of 6:54 PM on Friday 24 Oct 2014 (Local Time) from KTQE Reporting Station
Clear Clear  
Wind Chill: 66°   Ceiling: Unl
Heat Index: 66°   Visibility: 10mi
Dew Point: 51°   Wind: 3mph
Humidity: 59%   Direction: 290°WNW
Pressure: 29.93"   Gusts: NA
Location:  41.84°N, 96.47°W
Report Text: KTQE 242354Z AUTO 29003KT 10SM CLR 19/11 A2993 RMK AO2 SLP128 T01890106 10256 20189 53014
Loading
Personal Weather Stations






























Interactive Weather Map
Tropical Storm Tracking
New forecast layout! Learn more

10-Day Weather Forecast

Advertisements
Track Severe Weather on mobile